Home > Products > Valid Products > TAF

000
FTUS44 KLZK 010300 AAA
TAFHOT
TAF AMD
KHOT 010333Z 0104/0124 09003KT P6SM VCSH BKN020 OVC040
      TEMPO 0105/0109 4SM BR OVC020
     FM010900 VRB03KT 3SM BR SCT010 OVC025
      TEMPO 0109/0112 1/2SM FG BKN005
     FM011500 09005KT P6SM SCT020 BKN035 BKN250=



000
FTUS44 KLZK 010100 AAA
TAFLIT
TAF AMD
KLIT 010145Z 0102/0124 08003KT P6SM VCSH SCT020 OVC040
      TEMPO 0102/0105 5SM -RA BR BKN025
     FM010500 08003KT 6SM BR VCSH SCT025 OVC040
      TEMPO 0105/0109 3SM BR OVC025
     FM010900 VRB03KT 3SM BR SCT010 OVC025
      TEMPO 0109/0112 1SM BR BKN005 OVC010
     FM011500 09005KT P6SM SCT020 BKN035 BKN250=



000
FTUS44 KLZK 312300
TAFHRO
TAF
KHRO 312335Z 0100/0124 12005KT P6SM VCSH SCT015 OVC050
     FM010400 VRB05KT 6SM BR VCSH SCT025 OVC040
      TEMPO 0104/0108 2SM BR BKN025
     FM010800 VRB03KT 3SM BR SCT010 OVC025
      TEMPO 0108/0112 1/2SM FG BKN005
     FM011500 09005KT P6SM SCT020 BKN035 BKN250=



000
FTUS44 KLZK 312300
TAFLIT
TAF
KLIT 312335Z 0100/0124 08006KT P6SM -RA SCT025 OVC050
     FM010200 08003KT P6SM VCSH SCT020 OVC040
     FM010500 VRB03KT 6SM BR VCSH SCT025 OVC040
      TEMPO 0105/0109 3SM BR BKN025
     FM010900 VRB03KT 3SM BR SCT010 OVC025
      TEMPO 0109/0112 1SM BR BKN005
     FM011500 09005KT P6SM SCT020 BKN035 BKN250=



000
FTUS44 KLZK 312300
TAFHOT
TAF
KHOT 312335Z 0100/0124 12005KT 6SM -RA BR BKN015 OVC050
      TEMPO 0100/0103 3SM -RA BR OVC015
     FM010300 10003KT P6SM VCSH SCT020 OVC040
     FM010500 VRB03KT 6SM BR VCSH SCT025 OVC040
      TEMPO 0105/0109 2SM BR BKN025
     FM010900 VRB03KT 3SM BR SCT010 OVC025
      TEMPO 0109/0112 1/2SM FG BKN005
     FM011500 09005KT P6SM SCT020 BKN035 BKN250=



000
FTUS44 KLZK 312300
TAFPBF
TAF
KPBF 312335Z 0100/0124 09005KT P6SM -RA SCT025 OVC050
     FM010200 08003KT P6SM VCSH SCT020 OVC040
     FM010500 VRB03KT 6SM BR VCSH SCT025 OVC040
      TEMPO 0105/0109 3SM BR BKN025
     FM010900 VRB03KT 3SM BR SCT010 OVC025
      TEMPO 0109/0112 1SM BR BKN005
     FM011500 09005KT P6SM SCT020 BKN035 BKN250=



000
FTUS44 KLZK 312200 AAA
TAFLIT
TAF AMD
KLIT 312252Z 3123/0118 09006KT P6SM VCSH SCT015 BKN025 OVC040
      TEMPO 3123/0102 5SM -RA BR OVC015
     FM010200 08005KT P6SM VCSH SCT025 OVC050
      TEMPO 0108/0112 3SM BR OVC025
     FM011200 07005KT P6SM SCT015 BKN025 OVC060
     FM011500 07005KT P6SM SCT025 BKN050=



000
FTUS44 KLZK 312200 AAA
TAFHRO
TAF AMD
KHRO 312246Z 3123/0118 12005KT P6SM VCSH SCT015 OVC050
     FM010400 VRB05KT 5SM BR VCSH BKN025 OVC040
      TEMPO 0104/0108 2SM BR
     FM010800 VRB03KT 3SM BR SCT010 BKN025
      TEMPO 0108/0112 1/2SM FG BKN005
     FM011500 09005KT P6SM SCT020 BKN035 BKN250=



000
FTUS44 KLZK 312000 AAA
TAFHOT
TAF AMD
KHOT 312057Z 3121/0118 14006KT P6SM VCSH OVC035
      TEMPO 3121/3124 5SM -RA BR OVC020
     FM010300 09003KT P6SM VCSH OVC040
      TEMPO 0108/0112 1SM BR OVC025=



000
FTUS44 KLZK 311700
TAFPBF
TAF
KPBF 311720Z 3118/0118 09006KT P6SM VCSH SCT015 OVC040
      TEMPO 3118/3122 5SM -RA BR BKN025
     FM312200 VRB05KT P6SM VCSH SCT025 OVC050
      TEMPO 0108/0112 3SM BR OVC015=



000
FTUS44 KLZK 311700
TAFLIT
TAF
KLIT 311720Z 3118/0118 12006KT P6SM VCSH SCT015 BKN025 OVC040
      TEMPO 3118/3122 5SM -RA BR BKN015
     FM312200 08005KT P6SM VCSH SCT025 OVC050
      TEMPO 0108/0112 3SM BR OVC025=



000
FTUS44 KLZK 311700
TAFHRO
TAF
KHRO 311720Z 3118/0118 12005KT P6SM VCSH SCT008 OVC035
      TEMPO 3118/3121 5SM -RA BR BKN008 OVC025
     FM010000 VRB05KT 5SM BR VCSH BKN025 OVC040
      TEMPO 0100/0104 2SM BR
     FM010400 VRB03KT 3SM BR SCT010 BKN025
      TEMPO 0108/0112 1/2SM FG BKN005
     FM011500 09005KT P6SM SCT020 BKN035=



000
FTUS44 KLZK 311700
TAFHOT
TAF
KHOT 311720Z 3118/0118 09007KT P6SM VCSH OVC025
      TEMPO 3118/3122 2SM -RA BR BKN020
     FM010300 09003KT P6SM VCSH OVC040
      TEMPO 0108/0112 1SM BR OVC025=



000
FTUS44 KLZK 311400 AAA
TAFPBF
TAF AMD
KPBF 311406Z 3114/0112 VRB05KT P6SM VCSH SCT025 OVC050
      TEMPO 3115/3119 5SM -RA BKN020
     FM311900 12007KT P6SM -RA SCT025 OVC040
      TEMPO 0108/0112 3SM BR OVC025=



000
FTUS44 KLZK 311400 AAA
TAFLIT
TAF AMD
KLIT 311405Z 3114/0112 VRB05KT P6SM VCSH SCT010 OVC040
      TEMPO 3114/3118 4SM -RA BR OVC010
     FM311800 14006KT P6SM -RA SCT030 OVC040
      TEMPO 0108/0112 3SM BR OVC025=



000
FTUS44 KLZK 311400 AAA
TAFHOT
TAF AMD
KHOT 311403Z 3114/0112 11006KT P6SM VCSH SCT020 OVC040
      TEMPO 3114/3118 3SM -SHRA BR OVC015
     FM311800 09007KT 5SM -SHRA BR OVC025
     FM010100 09003KT P6SM OVC040
      TEMPO 0108/0112 3SM BR OVC025=



000
FTUS44 KLZK 311400 AAA
TAFHRO
TAF AMD
KHRO 311401Z 3114/0112 10005KT P6SM VCSH SCT015 OVC035
      TEMPO 3114/3117 2SM -RA BR BKN008
     FM311700 15005KT P6SM -RA SCT020 OVC040
      TEMPO 3117/3121 4SM -RA BR OVC025
     FM010000 14003KT P6SM OVC040
      TEMPO 0108/0112 2SM BR OVC025=



000
FTUS44 KLZK 311100
TAFHOT
TAF
KHOT 311140Z 3112/0112 08003KT 6SM -SHRA BR OVC040
      TEMPO 3112/3116 3SM RA BR OVC025
     FM311600 11006KT 4SM -SHRA BR OVC025
      TEMPO 3116/3120 3SM SHRA BR OVC015
     FM312000 09007KT 5SM -SHRA BR OVC025
     FM010100 09003KT P6SM OVC040
      TEMPO 0108/0112 3SM BR OVC025=



000
FTUS44 KLZK 311100
TAFPBF
TAF
KPBF 311140Z 3112/0112 03003KT P6SM -RA SCT040 OVC070
      TEMPO 3112/3116 2SM -RA BR OVC040
     FM311600 11007KT 6SM -RA BR OVC025
     FM311700 12007KT P6SM -RA SCT025 OVC040
      TEMPO 0108/0112 3SM BR OVC025=



000
FTUS44 KLZK 311100
TAFHRO
TAF
KHRO 311140Z 3112/0112 00000KT 2SM BR SCT002 OVC040
      TEMPO 3112/3114 1/4SM FG OVC002
     FM311400 12005KT 3SM BR OVC015
      TEMPO 3114/3117 1SM -RA BR OVC005
     FM311700 15005KT P6SM -RA SCT020 OVC040
      TEMPO 3117/3121 4SM -RA BR OVC025
     FM010000 14003KT P6SM OVC040
      TEMPO 0108/0112 2SM BR OVC025=



000
FTUS44 KLZK 311100
TAFLIT
TAF
KLIT 311140Z 3112/0112 15004KT P6SM -RA SCT006 OVC025
      TEMPO 3112/3116 2SM -RA BR OVC015
     FM311600 17006KT P6SM OVC040
      TEMPO 3116/3120 5SM -RA BR OVC025
     FM312000 14006KT P6SM -RA SCT030 OVC040
      TEMPO 0108/0112 3SM BR OVC025=



000
FTUS44 KLZK 311000 AAB
TAFHRO
TAF AMD
KHRO 311100Z 3111/0106 00000KT 3SM BR SCT002 OVC040
      TEMPO 3111/3113 1/4SM FG OVC002
     FM311300 12005KT 3SM BR OVC015
      TEMPO 3113/3116 1SM -RA BR OVC005
     FM311600 15005KT P6SM -RA SCT020 OVC040
      TEMPO 3116/3120 4SM -RA BR OVC025
     FM010000 14003KT P6SM OVC040=



000
FTUS44 KLZK 310900 AAA
TAFPBF
TAF AMD
KPBF 310929Z 3109/0106 03003KT 6SM -RA BR SCT040 OVC090
      TEMPO 3110/3113 2SM RA BR OVC040
     FM311300 11007KT 4SM -RA BR OVC025
     FM311700 12007KT P6SM -RA SCT025 OVC040 PROB30 3120/3124 5SM
      -RA BR OVC025=



000
FTUS44 KLZK 310900 AAA
TAFHRO
TAF AMD
KHRO 310911Z 3109/0106 00000KT 6SM BR SCT002 OVC040
      TEMPO 3109/3113 3SM -RA BR BKN002
     FM311300 12005KT 5SM -RA BR OVC015
      TEMPO 3113/3116 2SM -RA BR OVC005
     FM311600 15005KT P6SM -RA SCT020 OVC040
      TEMPO 3116/3120 4SM -RA BR OVC025
     FM010000 14003KT P6SM OVC040=



000
FTUS44 KLZK 310900 AAA
TAFLIT
TAF AMD
KLIT 310908Z 3109/0106 00000KT P6SM SCT008 OVC040
      TEMPO 3109/3112 5SM -RA BR BKN008 OVC040
     FM311200 12004KT 5SM -RA BR SCT025 OVC040
      TEMPO 3112/3115 2SM RA BR OVC015
     FM010000 11005KT P6SM -RA SCT030 OVC040=



000
FTUS44 KLZK 310500
TAFLIT
TAF
KLIT 310540Z 3106/0106 00000KT P6SM BKN100 OVC150
      TEMPO 3107/3111 5SM -RA BR OVC015
     FM311100 12004KT 5SM -RA BR SCT025 OVC040
      TEMPO 3111/3115 2SM RA BR OVC015
     FM010000 11005KT P6SM -RA SCT030 OVC040=



000
FTUS44 KLZK 310500
TAFPBF
TAF
KPBF 310540Z 3106/0106 03003KT P6SM OVC090
      TEMPO 3110/3114 2SM RA BR OVC040
     FM311400 11007KT 4SM -RA BR OVC025
     FM311700 12007KT P6SM -RA SCT025 OVC040 PROB30 3120/3124 5SM
      -RA BR OVC025=



000
FTUS44 KLZK 310500
TAFHOT
TAF
KHOT 310540Z 3106/0106 08003KT 6SM -SHRA BR OVC040
      TEMPO 3109/3113 3SM RA BR OVC025
     FM311300 11005KT 4SM -SHRA BR OVC025
      TEMPO 3113/3117 3SM TSRA BR OVC015CB
     FM311700 09007KT 5SM -SHRA BR OVC025
     FM010100 09003KT P6SM OVC040=



000
FTUS44 KLZK 310500
TAFHRO
TAF
KHRO 310540Z 3106/0106 00000KT P6SM SCT002 OVC008
      TEMPO 3109/3113 2SM -RA BR BKN002
     FM311300 12005KT 5SM -RA BR OVC015
      TEMPO 3113/3116 3SM -RA BR OVC005
     FM311600 15005KT P6SM -RA SCT020 OVC040 PROB30 3116/3122 4SM
      -RA BR OVC025
     FM010000 14003KT P6SM OVC040=



000
FTUS44 KLZK 310300 AAB
TAFHRO
TAF AMD
KHRO 310347Z 3104/3124 VRB05KT P6SM SCT025 OVC050
      TEMPO 3104/3106 5SM -RA BR BKN006 OVC025
     FM310600 VRB03KT 6SM BR SCT025 OVC035
      TEMPO 3106/3110 2SM RA BR OVC006
     FM311000 VRB03KT 3SM -RA BR OVC025
      TEMPO 3110/3114 1SM -RA BR OVC005
     FM311500 15005KT P6SM -RA SCT020 OVC040 PROB30 3115/3118 4SM
      -RA BR OVC025=



000
FTUS44 KLZK 310200 AAA
TAFHRO
TAF AMD
KHRO 310244Z 3103/3124 VRB05KT P6SM -RA SCT025 OVC050
      TEMPO 3103/3106 5SM -RA BR BKN009 OVC025
     FM310600 VRB03KT P6SM -RA SCT025 OVC035
      TEMPO 3106/3110 2SM RA BR OVC008
     FM311000 VRB03KT 3SM -RA BR OVC025
      TEMPO 3110/3114 1SM -RA BR OVC005
     FM311500 15005KT P6SM -RA SCT020 OVC040 PROB30 3115/3118 4SM
      -RA BR OVC025=



000
FTUS44 KLZK 302300
TAFHRO
TAF
KHRO 302331Z 3100/3124 VRB05KT 6SM -RA BR SCT025 OVC050
      TEMPO 3100/3104 3SM RA BR SCT005 OVC035
     FM310400 VRB03KT 5SM -RA BR SCT025 OVC035
      TEMPO 3106/3110 2SM RA BR OVC015
     FM311000 VRB03KT 3SM -RA BR OVC025
      TEMPO 3110/3114 1SM RA BR OVC005
     FM311500 15005KT P6SM -RA SCT020 OVC040 PROB30 3115/3118 4SM
      -RA BR OVC025=



000
FTUS44 KLZK 302300
TAFHOT
TAF
KHOT 302331Z 3100/3124 VRB05KT P6SM -RA SCT035 BKN050 OVC080
      TEMPO 3103/3106 5SM -SHRA BR BKN025 OVC040
     FM310600 VRB05KT 5SM -SHRA BR SCT025 OVC040
      TEMPO 3108/3111 2SM RA BR OVC015
     FM311100 13006KT 4SM -RA BR OVC015
     FM311400 13007KT P6SM -RA SCT025 OVC035 PROB30 3114/3118 5SM
      -RA BR OVC025=



000
FTUS44 KLZK 302300
TAFLIT
TAF
KLIT 302331Z 3100/3124 30005KT P6SM -RA BKN040 OVC080
      TEMPO 3102/3106 5SM -RA BR OVC035
     FM310600 27003KT 6SM -RA BR SCT025 OVC040
      TEMPO 3106/3110 2SM RA BR OVC015
     FM311000 VRB05KT 5SM -RA BR SCT025 OVC040
      TEMPO 3110/3114 2SM RA BR OVC015
     FM311400 13007KT P6SM -RA SCT025 BKN035 OVC050 PROB30 3115/3118
      5SM -RA BR OVC025=



000
FTUS44 KLZK 302300
TAFPBF
TAF
KPBF 302331Z 3100/3124 30005KT P6SM -RA SCT025 OVC080
      TEMPO 3102/3106 5SM -RA BR OVC035
     FM310600 26003KT 6SM -RA BR SCT025 OVC040
      TEMPO 3106/3109 2SM RA BR OVC015
     FM310900 VRB05KT 5SM -RA BR SCT025 OVC040
      TEMPO 3109/3111 2SM RA BR OVC015
     FM311100 13005KT 4SM -RA BR OVC015
     FM311400 13007KT P6SM -RA SCT025 BKN035 OVC050 PROB30 3115/3118
      5SM -RA BR OVC025=



000
FTUS44 KLZK 302200 AAD
TAFHRO
TAF AMD
KHRO 302229Z 3022/3118 VRB05KT P6SM -RA SCT025 OVC050
      TEMPO 3022/3102 2SM RA BR SCT005 OVC035
     FM310200 VRB03KT 5SM -SHRA BR SCT025 OVC035
      TEMPO 3106/3110 1SM SHRA BR OVC015
     FM311200 15005KT P6SM VCSH SCT012 BKN020 PROB30 3112/3118 5SM
      -SHRA BR BKN012=



000
FTUS44 KLZK 302200 AAA
TAFLIT
TAF AMD
KLIT 302227Z 3022/3118 27006KT P6SM VCSH SCT025 OVC060
      TEMPO 3023/3103 5SM -SHRA BR OVC035
     FM310300 26003KT 6SM -RA BR SCT025 OVC040
      TEMPO 3108/3112 2SM SHRA BR OVC015
     FM311500 13007KT P6SM -RA SCT025 BKN035 OVC050 PROB30 3115/3118
      5SM -SHRA BR OVC025=



000
FTUS44 KLZK 302000 AAC
TAFHRO
TAF AMD
KHRO 302030Z 3021/3118 VRB05KT P6SM -RA SCT025 OVC035
      TEMPO 3021/3024 1SM +RA BR SCT005 OVC010
     FM310000 VRB03KT 5SM -SHRA BR SCT015 BKN025 OVC035
      TEMPO 3107/3111 1SM SHRA BR OVC015
     FM311200 15005KT P6SM VCSH SCT012 BKN020 PROB30 3112/3118 5SM
      -SHRA BR BKN012=



000
FTUS44 KLZK 301800 AAB
TAFHRO
TAF AMD
KHRO 301815Z 3018/3118 VRB05KT P6SM VCSH SCT025 OVC035
      TEMPO 3018/3022 1/2SM SHRA FG BKN010
     FM302200 VRB03KT 5SM -SHRA BR SCT015 BKN025 OVC035
      TEMPO 3107/3111 1SM SHRA BR OVC015
     FM311200 15005KT P6SM VCSH SCT012 BKN020 PROB30 3112/3118 5SM
      -SHRA BR BKN012=



000
FTUS44 KLZK 301800 AAA
TAFHRO
TAF AMD
KHRO 301814Z 3018/3118 VRB05KT P6SM VCSH SCT025 OVC035
      TEMPO 3018/3022 1/2SM SHRA FG BKN025
     FM302200 VRB03KT 5SM -SHRA BR SCT015 BKN025 OVC035
      TEMPO 3107/3111 1SM SHRA BR OVC015
     FM311200 15005KT P6SM VCSH SCT012 BKN020 PROB30 3112/3118 5SM
      -SHRA BR BKN012=



000
FTUS44 KLZK 301700
TAFLIT
TAF
KLIT 301721Z 3018/3118 18008KT P6SM SCT080 BKN120
     FM302000 24006KT P6SM VCSH SCT025 OVC050
      TEMPO 3023/3103 5SM -SHRA BR BKN025
     FM310300 VRB05KT 5SM -SHRA BR BKN025 OVC040
      TEMPO 3108/3112 1SM SHRA BR OVC012
     FM311500 13007KT P6SM VCSH SCT025 BKN035 PROB30 3115/3118 5SM
      -SHRA BR BKN025=



000
FTUS44 KLZK 301700
TAFPBF
TAF
KPBF 301721Z 3018/3118 20008KT P6SM SCT080 BKN120
     FM302200 24006KT P6SM VCSH SCT025 OVC050
      TEMPO 3102/3106 5SM -SHRA BR BKN025
     FM310600 VRB05KT 5SM -SHRA BR BKN025 OVC040
      TEMPO 3110/3114 1SM SHRA BR OVC012
     FM311400 13007KT P6SM SCT015 BKN025 PROB30 3114/3118 5SM -SHRA
      BR BKN015=



000
FTUS44 KLZK 301700
TAFHOT
TAF
KHOT 301721Z 3018/3118 18005KT P6SM VCSH SCT025 OVC050
      TEMPO 3019/3023 -RA
     FM302300 VRB05KT P6SM -RA SCT020 BKN035
      TEMPO 3023/3103 5SM -SHRA BR BKN025
     FM310300 VRB05KT 5SM -SHRA BR BKN025 OVC040
      TEMPO 3107/3111 1SM SHRA BR OVC012
     FM311300 13007KT P6SM VCSH SCT025 BKN035 PROB30 3113/3118 5SM
      -SHRA BR BKN025=



000
FTUS44 KLZK 301700
TAFHRO
TAF
KHRO 301721Z 3018/3118 VRB05KT P6SM VCSH SCT025 OVC035
      TEMPO 3018/3022 2SM -SHRA BR BKN025
     FM302200 VRB03KT 5SM -SHRA BR SCT015 BKN025 OVC035
      TEMPO 3107/3111 1SM SHRA BR OVC015
     FM311200 15005KT P6SM VCSH SCT012 BKN020 PROB30 3112/3118 5SM
      -SHRA BR BKN012=



000
FTUS44 KLZK 301100
TAFPBF
TAF
KPBF 301132Z 3012/3112 00000KT P6SM BKN250
     FM301500 18005KT P6SM SCT080 BKN120
     FM302200 01006KT P6SM VCSH BKN060 OVC100
     FM310200 02003KT 5SM -SHRA OVC050
      TEMPO 3109/3112 2SM SHRA BR OVC025=



000
FTUS44 KLZK 301100
TAFHOT
TAF
KHOT 301132Z 3012/3112 10004KT P6SM SCT080 OVC120
     FM301700 20005KT P6SM VCSH OVC060
      TEMPO 3020/3024 6SM -SHRA OVC040
     FM310000 08003KT 5SM -SHRA BR OVC040
      TEMPO 3108/3112 2SM SHRA BR OVC025=



000
FTUS44 KLZK 301100
TAFLIT
TAF
KLIT 301132Z 3012/3112 16003KT P6SM SCT100 BKN250
     FM301500 18005KT P6SM SCT080 OVC120
     FM302000 24006KT P6SM VCSH OVC050
     FM310100 01003KT 5SM -SHRA BR OVC040
      TEMPO 3109/3112 2SM SHRA BR OVC025=



000
FTUS44 KLZK 301100
TAFHRO
TAF
KHRO 301132Z 3012/3112 15003KT P6SM VCSH SCT080 OVC120
     FM301800 24007KT P6SM VCSH OVC050
      TEMPO 3020/3024 6SM -SHRA BR OVC040
     FM310000 23003KT 5SM -SHRA BR OVC035
      TEMPO 3108/3112 2SM SHRA BR OVC025=



000
FTUS44 KLZK 300500
TAFLIT
TAF
KLIT 300539Z 3006/3106 16003KT P6SM SCT120 OVC250
     FM301300 18005KT P6SM SCT080 OVC120
     FM301800 24006KT P6SM VCSH OVC050 PROB30 3018/3024 5SM -RA BR
      OVC030
     FM310000 VRB03KT 5SM -SHRA BR OVC040=



000
FTUS44 KLZK 300500
TAFHOT
TAF
KHOT 300539Z 3006/3106 08003KT P6SM SCT120 OVC250
     FM301200 12004KT P6SM SCT080 OVC120 PROB30 3015/3018 -RA
     FM301800 17005KT P6SM VCSH OVC050 PROB30 3018/3024 5SM -SHRA BR
      OVC030
     FM310000 08003KT 5SM -SHRA BR OVC035=



000
FTUS44 KLZK 300500
TAFPBF
TAF
KPBF 300539Z 3006/3106 00000KT P6SM OVC250
     FM301400 19005KT P6SM SCT080 OVC120
     FM302200 01006KT P6SM VCSH BKN060 OVC100
     FM310200 02003KT P6SM OVC050 PROB30 3102/3106 5SM -SHRA BR=



000
FTUS44 KLZK 300500
TAFHRO
TAF
KHRO 300539Z 3006/3106 VRB03KT P6SM SCT070 BKN250
     FM300900 15003KT P6SM SCT050 OVC120
     FM301800 20007KT P6SM VCSH OVC040 PROB30 3018/3024 4SM -RA BR
      OVC025
     FM310000 22004KT 5SM -SHRA BR OVC035=



000
FTUS44 KLZK 292300
TAFHRO
TAF
KHRO 292332Z 3000/3024 VRB03KT P6SM SCT070
     FM300900 16003KT P6SM VCSH SCT050 OVC100 PROB30 3012/3018 -RA
      BKN030
     FM301800 22007KT P6SM VCSH OVC040 PROB30 3018/3024 4SM -RA BR
      OVC025=



000
FTUS44 KLZK 292300
TAFLIT
TAF
KLIT 292332Z 3000/3024 VRB03KT P6SM SCT050
     FM301300 18005KT P6SM VCSH SCT080 OVC120
     FM301800 24006KT P6SM VCSH OVC050 PROB30 3018/3024 5SM -RA BR
      OVC030=



000
FTUS44 KLZK 292300
TAFPBF
TAF
KPBF 292332Z 3000/3024 VRB03KT P6SM SCT080
     FM301400 16005KT P6SM VCSH SCT080 OVC120=



000
FTUS44 KLZK 292300
TAFHOT
TAF
KHOT 292332Z 3000/3024 VRB03KT P6SM SCT060
     FM301200 12004KT P6SM VCSH SCT080 OVC120 PROB30 3015/3018 -RA
     FM301800 17005KT P6SM VCSH OVC050 PROB30 3018/3024 5SM -RA BR
      OVC030=



000
FTUS44 KLZK 291700
TAFLIT
TAF
KLIT 291720Z 2918/3018 07009KT P6SM SCT050 SCT250
     FM300300 15005KT P6SM FEW050 SCT200
     FM301300 18005KT P6SM VCSH SCT080 BKN120=



000
FTUS44 KLZK 291700
TAFHRO
TAF
KHRO 291720Z 2918/3018 VRB05KT P6SM SCT060 SCT250
     FM300900 18005KT P6SM VCSH SCT050 BKN100 PROB30 3012/3018 -RA
      BKN030=



000
FTUS44 KLZK 291700
TAFHOT
TAF
KHOT 291720Z 2918/3018 VRB05KT P6SM SCT080 SCT250
     FM301200 18005KT P6SM VCSH SCT080 BKN120 PROB30 3015/3018 -RA=



000
FTUS44 KLZK 291700
TAFPBF
TAF
KPBF 291720Z 2918/3018 06009KT P6SM SCT080 SCT250
     FM301400 18005KT P6SM VCSH SCT080 BKN120=



000
FTUS44 KLZK 291100
TAFHRO
TAF
KHRO 291120Z 2912/3012 VRB04KT P6SM SCT250
     FM291700 07006KT P6SM SCT040
     FM300000 VRB03KT P6SM SCT250
     FM300900 VRB03KT P6SM SCT150 BKN250=



000
FTUS44 KLZK 291100
TAFHOT
TAF
KHOT 291120Z 2912/3012 02006KT P6SM SCT250
     FM291700 04007KT P6SM SCT040
     FM300000 VRB03KT P6SM SCT250
     FM300900 VRB03KT P6SM SCT150 BKN250=



000
FTUS44 KLZK 291100
TAFPBF
TAF
KPBF 291120Z 2912/3012 VRB04KT P6SM SCT250
     FM291700 07006KT P6SM SCT040
     FM300000 VRB03KT P6SM SCT250=



000
FTUS44 KLZK 291100
TAFLIT
TAF
KLIT 291120Z 2912/3012 VRB04KT P6SM SCT250
     FM291700 07006KT P6SM SCT040
     FM300000 VRB03KT P6SM SCT250
     FM300900 VRB03KT P6SM SCT150 BKN250=



000
FTUS44 KLZK 290500
TAFLIT
TAF
KLIT 290635Z 2906/3006 VRB04KT P6SM SKC
     FM291500 06006KT P6SM SCT250=



000
FTUS44 KLZK 290500
TAFPBF
TAF
KPBF 290635Z 2906/3006 VRB04KT P6SM SKC
     FM291500 04006KT P6SM SCT150=



000
FTUS44 KLZK 290500
TAFHOT
TAF
KHOT 290635Z 2906/3006 VRB05KT P6SM SKC
     FM291500 07006KT P6SM SCT250=



000
FTUS44 KLZK 290500
TAFHRO
TAF
KHRO 290635Z 2906/3006 VRB04KT P6SM SKC
     FM291500 07006KT P6SM SCT250=



    US Dept of Commerce
    National Oceanic and Atmospheric Administration
    National Weather Service
    1325 East West Highway
    Silver Spring, MD 20910
    Page Author: NWS Internet Services Team
Disclaimer
Information Quality
Credits
Glossary
Privacy Policy
Freedom of Information Act (FOIA)
About Us
Career Opportunities